Time;durP1;ratioP1;P1;durP2;ratioP2;P2;SDS_P1;SDS_P2;PMS_P1;PMS_P2;Temp;Humidity;BMP_temperature;BMP_pressure;BME280_temperature;BME280_humidity;BME280_pressure;Samples;Min_cycle;Max_cycle;Signal;HPM_P1;HPM_P2
2023/06/12 00:01:28;;;;;;;9.25;4.20;;;21.40;91.40;;;;;;4951794;29;20027;-69
2023/06/12 00:03:56;;;;;;;5.68;4.10;;;21.40;91.30;;;;;;4951706;29;20030;-69
2023/06/12 00:06:22;;;;;;;6.30;3.75;;;21.40;91.30;;;;;;4951597;29;20039;-69
2023/06/12 00:08:47;;;;;;;5.57;4.18;;;21.40;91.20;;;;;;4951711;29;20024;-70
2023/06/12 00:11:13;;;;;;;10.13;4.20;;;21.40;91.10;;;;;;4951740;29;20024;-70
2023/06/12 00:13:43;;;;;;;4.90;4.43;;;21.40;91.00;;;;;;4951789;29;20360;-70
2023/06/12 00:16:10;;;;;;;6.25;4.05;;;21.40;91.10;;;;;;4951607;29;20030;-71
2023/06/12 00:18:38;;;;;;;4.63;3.97;;;21.40;91.10;;;;;;4951565;29;20027;-69
2023/06/12 00:21:04;;;;;;;7.22;4.40;;;21.30;91.10;;;;;;4951526;29;20019;-69
2023/06/12 00:23:30;;;;;;;6.20;4.18;;;21.30;91.20;;;;;;4951553;29;20027;-68
2023/06/12 00:25:56;;;;;;;7.50;4.32;;;21.30;91.20;;;;;;4951475;29;20075;-70
2023/06/12 00:28:22;;;;;;;8.00;4.78;;;21.30;91.20;;;;;;4951501;28;20027;-69
2023/06/12 00:30:47;;;;;;;4.40;4.00;;;21.30;91.20;;;;;;4951470;29;20567;-70
2023/06/12 00:33:13;;;;;;;5.72;4.45;;;21.30;91.20;;;;;;4951367;28;20055;-70
2023/06/12 00:35:38;;;;;;;6.63;4.07;;;21.20;91.20;;;;;;4951235;28;20062;-70
2023/06/12 00:38:06;;;;;;;10.63;4.63;;;21.20;91.30;;;;;;4951391;28;20057;-69
2023/06/12 00:40:31;;;;;;;7.10;4.20;;;21.20;91.40;;;;;;4951490;29;20034;-69
2023/06/12 00:42:57;;;;;;;7.70;3.90;;;21.20;91.40;;;;;;4951858;28;20024;-69
2023/06/12 00:45:23;;;;;;;5.25;4.60;;;21.20;91.50;;;;;;4954789;29;20043;-69
2023/06/12 00:47:57;;;;;;;8.75;4.30;;;21.10;91.50;;;;;;4954446;28;20081;-70
2023/06/12 00:50:27;;;;;;;6.18;4.45;;;21.10;91.40;;;;;;4954672;29;20028;-70
2023/06/12 00:52:55;;;;;;;7.13;4.57;;;21.00;91.50;;;;;;4954491;29;20494;-70
2023/06/12 00:55:21;;;;;;;5.22;3.92;;;21.00;91.60;;;;;;4954610;29;20038;-70
2023/06/12 00:57:48;;;;;;;4.95;4.25;;;21.00;91.60;;;;;;4953428;29;20027;-70
2023/06/12 01:00:17;;;;;;;6.63;4.60;;;20.90;91.70;;;;;;4951891;29;20525;-70
2023/06/12 01:02:50;;;;;;;7.90;4.47;;;20.90;91.60;;;;;;4951497;29;20036;-70
2023/06/12 01:05:20;;;;;;;4.80;4.40;;;20.90;91.70;;;;;;4953234;29;20043;-69
2023/06/12 01:08:02;;;;;;;4.53;4.13;;;20.90;91.80;;;;;;4954497;29;20019;-69
2023/06/12 01:10:37;;;;;;;9.32;4.70;;;20.80;91.60;;;;;;4954449;28;20116;-69
2023/06/12 01:13:03;;;;;;;4.65;4.05;;;20.80;91.80;;;;;;4953849;29;20498;-69
2023/06/12 01:15:29;;;;;;;10.32;5.13;;;20.80;91.80;;;;;;4954267;29;20102;-70
2023/06/12 01:17:58;;;;;;;10.52;5.65;;;20.80;91.70;;;;;;4937121;29;20122;-68
2023/06/12 01:20:24;;;;;;;4.50;3.97;;;20.80;91.60;;;;;;4954108;29;20030;-71
2023/06/12 01:23:05;;;;;;;4.85;3.95;;;20.70;91.40;;;;;;4954292;29;20028;-70
2023/06/12 01:25:55;;;;;;;6.25;3.55;;;20.80;91.30;;;;;;4953999;29;20044;-69
2023/06/12 01:28:39;;;;;;;4.88;4.20;;;20.70;91.00;;;;;;4953869;29;20451;-69
2023/06/12 01:31:13;;;;;;;5.80;4.15;;;20.70;90.90;;;;;;4954237;28;20031;-70
2023/06/12 01:33:42;;;;;;;7.03;4.20;;;20.70;90.90;;;;;;4936401;29;20038;-70
2023/06/12 01:36:13;;;;;;;5.70;4.43;;;20.70;91.00;;;;;;4953155;29;20051;-70
2023/06/12 01:38:41;;;;;;;6.28;4.20;;;20.70;91.00;;;;;;4953370;29;20589;-70
2023/06/12 01:41:09;;;;;;;6.60;4.22;;;20.70;91.00;;;;;;4953486;29;20031;-70
2023/06/12 01:43:36;;;;;;;5.97;4.13;;;20.70;90.70;;;;;;4953742;29;20027;-70
2023/06/12 01:46:03;;;;;;;6.82;4.55;;;20.60;90.60;;;;;;4953541;29;20505;-69
2023/06/12 01:48:29;;;;;;;7.20;3.88;;;20.70;90.60;;;;;;4953581;29;20023;-70
2023/06/12 01:50:54;;;;;;;5.72;3.83;;;20.70;90.50;;;;;;4953823;29;20071;-71
2023/06/12 01:53:21;;;;;;;6.78;4.22;;;20.70;90.30;;;;;;4953549;28;20028;-69
2023/06/12 01:55:49;;;;;;;4.35;3.95;;;20.70;90.20;;;;;;4953053;29;20062;-70
2023/06/12 01:58:15;;;;;;;6.85;4.50;;;20.70;90.20;;;;;;4936566;29;20352;-70
2023/06/12 02:00:41;;;;;;;10.07;4.78;;;20.70;90.10;;;;;;4936155;29;20034;-69
2023/06/12 02:03:08;;;;;;;6.45;3.95;;;20.60;90.10;;;;;;4953387;29;20023;-70
2023/06/12 02:05:33;;;;;;;6.10;3.83;;;20.70;90.10;;;;;;4953691;28;20031;-69
2023/06/12 02:07:59;;;;;;;7.65;4.18;;;20.70;90.00;;;;;;5004170;28;20032;-70
2023/06/12 02:10:25;;;;;;;7.63;4.60;;;20.70;89.80;;;;;;5054643;28;20021;-69
2023/06/12 02:12:51;;;;;;;6.95;4.05;;;20.70;89.90;;;;;;5054420;28;20476;-70
2023/06/12 02:15:18;;;;;;;10.07;4.32;;;20.70;90.10;;;;;;5054289;28;20033;-70
2023/06/12 02:17:44;;;;;;;15.38;4.50;;;20.60;90.20;;;;;;5054340;28;20492;-69
2023/06/12 02:20:10;;;;;;;7.32;4.40;;;20.70;90.30;;;;;;5054418;28;20029;-70
2023/06/12 02:22:35;;;;;;;10.10;4.30;;;20.60;90.30;;;;;;5054316;28;20021;-70
2023/06/12 02:25:02;;;;;;;5.97;4.40;;;20.60;90.40;;;;;;5053924;28;20102;-69
2023/06/12 02:27:28;;;;;;;7.68;5.18;;;20.50;90.60;;;;;;5054303;28;20358;-69
2023/06/12 02:29:53;;;;;;;9.98;4.57;;;20.50;90.70;;;;;;5053980;28;20122;-70
2023/06/12 02:32:19;;;;;;;5.30;4.20;;;20.50;90.80;;;;;;5053907;28;20155;-71
2023/06/12 02:34:45;;;;;;;7.32;4.93;;;20.50;91.10;;;;;;5053626;28;20049;-69
2023/06/12 02:37:10;;;;;;;8.77;4.93;;;20.40;90.90;;;;;;5053874;28;20496;-69
2023/06/12 02:39:36;;;;;;;5.68;4.50;;;20.40;90.90;;;;;;5054021;28;20033;-70
2023/06/12 02:42:03;;;;;;;5.47;4.22;;;20.40;90.80;;;;;;5053866;28;20025;-70
2023/06/12 02:44:28;;;;;;;7.93;4.25;;;20.40;90.90;;;;;;5053567;28;20036;-69
2023/06/12 02:46:59;;;;;;;5.25;4.75;;;20.30;91.00;;;;;;5053494;28;20033;-70
2023/06/12 02:49:27;;;;;;;10.43;5.00;;;20.30;91.10;;;;;;5053523;28;20082;-70
2023/06/12 02:51:54;;;;;;;8.95;5.05;;;20.30;91.10;;;;;;5053323;28;20422;-69
2023/06/12 02:54:22;;;;;;;8.27;4.97;;;20.30;91.10;;;;;;5053458;28;20036;-70
2023/06/12 02:56:48;;;;;;;5.30;4.55;;;20.30;91.20;;;;;;5053493;28;20025;-69
2023/06/12 02:59:19;;;;;;;5.45;4.50;;;20.30;91.30;;;;;;5053099;28;20029;-69
2023/06/12 03:01:45;;;;;;;9.48;4.47;;;20.20;91.30;;;;;;5053714;28;20104;-70
2023/06/12 03:04:16;;;;;;;8.75;4.55;;;20.20;91.30;;;;;;5053480;28;20103;-69
2023/06/12 03:06:44;;;;;;;7.72;3.92;;;20.20;91.40;;;;;;5052739;28;20060;-69
2023/06/12 03:09:10;;;;;;;7.75;4.15;;;20.20;91.50;;;;;;5053501;28;20420;-70
2023/06/12 03:11:36;;;;;;;6.15;4.20;;;20.10;91.50;;;;;;5053119;28;20071;-69
2023/06/12 03:14:03;;;;;;;6.45;4.22;;;20.10;91.50;;;;;;5053073;28;20017;-70
2023/06/12 03:16:30;;;;;;;5.15;3.85;;;20.10;91.50;;;;;;5053187;28;20088;-70
2023/06/12 03:18:57;;;;;;;6.82;4.18;;;20.10;91.50;;;;;;5053426;28;20025;-70
2023/06/12 03:21:22;;;;;;;8.38;4.10;;;20.10;91.40;;;;;;5053117;28;20032;-70
2023/06/12 03:23:48;;;;;;;4.65;4.00;;;20.10;91.30;;;;;;5052903;28;20029;-69
2023/06/12 03:26:14;;;;;;;5.40;3.95;;;20.10;91.30;;;;;;5052406;28;20041;-70
2023/06/12 03:28:40;;;;;;;5.18;4.45;;;20.10;91.40;;;;;;5052826;28;20056;-69
2023/06/12 03:31:05;;;;;;;8.10;3.90;;;20.10;91.40;;;;;;5052752;28;20036;-69
2023/06/12 03:33:31;;;;;;;7.93;4.10;;;20.00;91.30;;;;;;5052813;28;20118;-70
2023/06/12 03:35:57;;;;;;;4.88;4.15;;;20.10;91.40;;;;;;5052763;28;20049;-70
2023/06/12 03:38:23;;;;;;;10.07;4.20;;;20.10;91.50;;;;;;5034842;28;20028;-69
2023/06/12 03:40:49;;;;;;;9.15;5.38;;;20.00;91.50;;;;;;5052507;28;20469;-69
2023/06/12 03:43:14;;;;;;;7.93;4.25;;;20.00;91.50;;;;;;5052887;28;20021;-70
2023/06/12 03:45:40;;;;;;;5.68;4.03;;;20.00;91.50;;;;;;5052730;28;20033;-70
2023/06/12 03:48:06;;;;;;;5.28;4.18;;;20.00;91.50;;;;;;5052782;28;20024;-70
2023/06/12 03:50:31;;;;;;;6.70;4.60;;;20.00;91.60;;;;;;5052719;28;20042;-69
2023/06/12 03:52:57;;;;;;;5.57;4.10;;;20.00;91.50;;;;;;5052538;28;20444;-70
2023/06/12 03:55:23;;;;;;;4.65;3.97;;;20.00;91.70;;;;;;5052520;28;20033;-72
2023/06/12 03:57:50;;;;;;;5.63;4.20;;;20.00;91.70;;;;;;5052705;28;20070;-69
2023/06/12 04:00:16;;;;;;;7.90;4.38;;;20.00;91.80;;;;;;5052469;28;20029;-69
2023/06/12 04:02:42;;;;;;;9.10;4.88;;;20.00;91.60;;;;;;5052728;28;20048;-70
2023/06/12 04:05:08;;;;;;;14.15;4.60;;;20.00;91.60;;;;;;5034397;28;20048;-70
2023/06/12 04:07:37;;;;;;;10.70;4.80;;;20.00;91.70;;;;;;5052384;28;20017;-70
2023/06/12 04:10:04;;;;;;;9.52;5.13;;;20.00;91.80;;;;;;5052420;28;20044;-69
2023/06/12 04:12:30;;;;;;;7.47;5.40;;;20.00;91.80;;;;;;5052401;28;20025;-69
2023/06/12 04:14:56;;;;;;;8.52;5.10;;;19.90;91.90;;;;;;5052267;28;20147;-70
2023/06/12 04:17:21;;;;;;;10.95;5.70;;;19.90;92.10;;;;;;5053761;28;20124;-69
2023/06/12 04:19:49;;;;;;;8.07;4.85;;;19.90;92.20;;;;;;5056455;28;20035;-69
2023/06/12 04:22:15;;;;;;;12.88;5.22;;;19.90;92.40;;;;;;5056420;28;20017;-69
2023/06/12 04:24:42;;;;;;;6.03;4.70;;;19.80;92.60;;;;;;5056459;28;20025;-69
2023/06/12 04:27:10;;;;;;;9.68;4.50;;;19.80;92.80;;;;;;5056346;28;20047;-69
2023/06/12 04:29:42;;;;;;;6.75;4.93;;;19.80;92.90;;;;;;5056470;28;20035;-70
2023/06/12 04:32:09;;;;;;;11.23;4.93;;;19.80;93.10;;;;;;5055867;28;20028;-69
2023/06/12 04:34:40;;;;;;;16.70;5.20;;;19.80;93.20;;;;;;5055186;28;20061;-70
2023/06/12 04:37:09;;;;;;;11.18;5.45;;;19.80;93.30;;;;;;5055393;28;20485;-70
2023/06/12 04:39:37;;;;;;;12.35;5.50;;;19.80;93.40;;;;;;5055437;28;20029;-69
2023/06/12 04:42:03;;;;;;;15.13;5.10;;;19.80;93.50;;;;;;5055441;28;20105;-69
2023/06/12 04:44:31;;;;;;;11.75;5.15;;;19.80;93.60;;;;;;5055484;28;20044;-69
2023/06/12 04:47:00;;;;;;;5.78;4.60;;;19.90;93.60;;;;;;5055654;28;20056;-69
2023/06/12 04:49:26;;;;;;;12.35;4.50;;;19.90;93.70;;;;;;5055967;28;20400;-70
2023/06/12 04:51:52;;;;;;;6.35;5.10;;;19.90;93.80;;;;;;5055598;28;20051;-70
2023/06/12 04:54:19;;;;;;;7.00;4.85;;;19.90;93.80;;;;;;5055745;28;20109;-70
2023/06/12 04:56:47;;;;;;;7.05;4.45;;;19.90;93.90;;;;;;5055352;28;20033;-70
2023/06/12 04:59:16;;;;;;;6.38;4.97;;;20.00;93.90;;;;;;5055780;28;20519;-70
2023/06/12 05:01:44;;;;;;;11.43;5.20;;;20.00;93.90;;;;;;5037670;28;20037;-70
2023/06/12 05:04:10;;;;;;;6.60;5.00;;;20.00;93.80;;;;;;5055412;28;20499;-70
2023/06/12 05:06:37;;;;;;;10.32;4.35;;;20.10;94.20;;;;;;5055175;28;20033;-69
2023/06/12 05:09:07;;;;;;;10.38;4.57;;;20.10;93.90;;;;;;5055527;28;20017;-69
2023/06/12 05:11:32;;;;;;;6.30;4.85;;;20.10;93.90;;;;;;5055259;28;20230;-69
2023/06/12 05:13:58;;;;;;;5.75;4.60;;;20.10;94.00;;;;;;5055184;28;20104;-69
2023/06/12 05:16:24;;;;;;;7.22;4.90;;;20.20;94.00;;;;;;5055060;28;20032;-71
2023/06/12 05:18:50;;;;;;;9.23;4.82;;;20.20;94.00;;;;;;5055002;28;20013;-70
2023/06/12 05:21:18;;;;;;;5.35;4.82;;;20.30;94.00;;;;;;5055298;28;20090;-69
2023/06/12 05:23:45;;;;;;;6.57;4.55;;;20.30;93.90;;;;;;5055242;28;20021;-69
2023/06/12 05:26:11;;;;;;;5.63;4.43;;;20.30;93.80;;;;;;5054860;28;20033;-70
2023/06/12 05:28:36;;;;;;;4.65;4.20;;;20.40;93.70;;;;;;5054291;28;20017;-71
2023/06/12 05:31:04;;;;;;;6.88;4.30;;;20.40;93.50;;;;;;5055125;28;20025;-69
2023/06/12 05:33:30;;;;;;;5.13;4.35;;;20.50;93.40;;;;;;5054520;28;20032;-69
2023/06/12 05:35:55;;;;;;;9.00;4.28;;;20.50;93.20;;;;;;5054452;28;20045;-71
2023/06/12 05:38:22;;;;;;;7.03;4.20;;;20.60;93.10;;;;;;5054500;28;20436;-68
2023/06/12 05:40:47;;;;;;;6.65;4.28;;;20.60;92.80;;;;;;5036861;28;20120;-70
2023/06/12 05:43:13;;;;;;;7.30;4.18;;;20.60;92.70;;;;;;5054783;28;20478;-70
2023/06/12 05:45:39;;;;;;;5.53;4.40;;;20.70;92.60;;;;;;5054644;28;20037;-70
2023/06/12 05:48:05;;;;;;;6.82;3.95;;;20.70;92.50;;;;;;5054642;28;20117;-69
2023/06/12 05:50:30;;;;;;;4.32;3.90;;;20.80;92.40;;;;;;5054768;28;20029;-70
2023/06/12 05:52:56;;;;;;;9.13;3.88;;;20.80;92.10;;;;;;5054694;28;20432;-71
2023/06/12 05:55:21;;;;;;;4.95;3.92;;;20.80;92.00;;;;;;5054549;28;20025;-70
2023/06/12 05:57:47;;;;;;;8.20;3.35;;;20.90;92.00;;;;;;5054685;28;20029;-70
2023/06/12 06:00:13;;;;;;;8.70;3.85;;;20.90;91.80;;;;;;5054289;28;20033;-70
2023/06/12 06:02:39;;;;;;;10.13;3.70;;;21.00;91.70;;;;;;5054222;28;20032;-70
2023/06/12 06:05:09;;;;;;;4.65;3.55;;;21.00;91.70;;;;;;5054203;28;20029;-70
2023/06/12 06:07:36;;;;;;;3.90;3.53;;;21.10;91.50;;;;;;5054389;28;20032;-71
2023/06/12 06:10:04;;;;;;;8.00;3.60;;;21.10;91.40;;;;;;5054182;28;20021;-76
2023/06/12 06:12:30;;;;;;;4.47;3.70;;;21.20;91.40;;;;;;5052595;28;20111;-70
2023/06/12 06:14:56;;;;;;;5.47;3.58;;;21.20;91.40;;;;;;5000899;28;20446;-70
2023/06/12 06:17:22;;;;;;;4.40;3.28;;;21.20;91.30;;;;;;4952970;28;20081;-69
2023/06/12 06:19:47;;;;;;;4.22;3.47;;;21.30;91.20;;;;;;5022877;28;20036;-69
2023/06/12 06:22:17;;;;;;;4.82;3.58;;;21.30;91.10;;;;;;5054035;28;20061;-70
2023/06/12 06:24:43;;;;;;;3.25;2.95;;;21.40;91.00;;;;;;4959979;28;20126;-72
2023/06/12 06:27:09;;;;;;;4.88;3.47;;;21.40;91.10;;;;;;4952306;29;20463;-72
2023/06/12 06:29:35;;;;;;;6.20;3.10;;;21.50;91.10;;;;;;4952116;29;20055;-72
2023/06/12 06:32:01;;;;;;;3.70;3.08;;;21.50;91.00;;;;;;4952559;28;20062;-70
2023/06/12 06:34:27;;;;;;;6.20;2.97;;;21.50;90.80;;;;;;4951588;28;20501;-71
2023/06/12 06:36:53;;;;;;;3.90;2.95;;;21.60;90.80;;;;;;4952871;29;20077;-70
2023/06/12 06:39:19;;;;;;;3.33;2.80;;;21.60;90.80;;;;;;4952667;29;20383;-70
2023/06/12 06:41:45;;;;;;;5.85;2.97;;;21.70;90.60;;;;;;4952697;29;20038;-70
2023/06/12 06:44:11;;;;;;;4.72;2.85;;;21.70;90.40;;;;;;4952189;29;20023;-70
2023/06/12 06:46:36;;;;;;;4.88;2.47;;;21.80;90.10;;;;;;4952479;28;20130;-70
2023/06/12 06:49:02;;;;;;;3.85;2.83;;;21.80;90.00;;;;;;4952479;28;20073;-70
2023/06/12 06:51:30;;;;;;;5.20;2.67;;;21.90;90.10;;;;;;4952459;29;20495;-70
2023/06/12 06:53:57;;;;;;;7.55;3.15;;;22.00;90.30;;;;;;4952534;29;20072;-71
2023/06/12 06:56:23;;;;;;;7.13;2.95;;;22.00;90.20;;;;;;4952679;29;20032;-70
2023/06/12 06:58:48;;;;;;;3.75;2.83;;;22.10;88.90;;;;;;4952355;29;20024;-69
2023/06/12 07:01:15;;;;;;;3.58;3.22;;;22.10;88.60;;;;;;4952654;28;20058;-70
2023/06/12 07:03:41;;;;;;;4.10;3.10;;;22.10;87.50;;;;;;4952490;29;20081;-71
2023/06/12 07:06:07;;;;;;;7.55;3.65;;;22.20;87.50;;;;;;4952414;29;20059;-71
2023/06/12 07:08:32;;;;;;;6.40;3.10;;;22.20;87.50;;;;;;4952059;28;20510;-70
2023/06/12 07:10:58;;;;;;;5.35;3.15;;;22.20;86.30;;;;;;4952347;28;20027;-71
2023/06/12 07:13:24;;;;;;;4.38;3.13;;;22.20;86.40;;;;;;4952227;28;20070;-70
2023/06/12 07:15:51;;;;;;;4.45;3.17;;;22.30;86.80;;;;;;4952467;28;20038;-70
2023/06/12 07:18:17;;;;;;;4.05;2.90;;;22.30;87.30;;;;;;4952350;29;20030;-70
2023/06/12 07:20:43;;;;;;;7.18;2.80;;;22.40;85.50;;;;;;4952264;29;20027;-70
2023/06/12 07:23:09;;;;;;;4.95;2.95;;;22.40;85.10;;;;;;4952296;29;20062;-70
2023/06/12 07:25:34;;;;;;;3.50;2.47;;;22.40;85.10;;;;;;4952208;29;20038;-71
2023/06/12 07:28:00;;;;;;;5.57;3.10;;;22.50;84.30;;;;;;4952385;29;20379;-71
2023/06/12 07:30:26;;;;;;;3.53;2.88;;;22.50;84.80;;;;;;4952097;28;20115;-71
2023/06/12 07:32:52;;;;;;;5.93;3.03;;;22.50;84.30;;;;;;4951172;29;20055;-70
2023/06/12 07:35:18;;;;;;;4.57;3.03;;;22.60;83.70;;;;;;4955975;22;20090;-71
2023/06/12 07:37:45;;;;;;;4.50;2.90;;;22.60;83.30;;;;;;4948735;28;20031;-71
2023/06/12 07:40:11;;;;;;;3.53;2.72;;;22.60;83.40;;;;;;4951091;28;20441;-71
2023/06/12 07:42:37;;;;;;;5.38;3.05;;;22.60;83.40;;;;;;4951576;28;20042;-70
2023/06/12 07:45:04;;;;;;;4.70;2.97;;;22.70;82.60;;;;;;4951524;28;20039;-70
2023/06/12 07:47:29;;;;;;;3.70;2.67;;;22.70;82.50;;;;;;4950820;28;20108;-70
2023/06/12 07:49:55;;;;;;;3.97;2.70;;;22.80;81.50;;;;;;4951820;28;20526;-70
2023/06/12 07:52:22;;;;;;;3.55;2.78;;;22.80;81.80;;;;;;4951608;28;20027;-69
2023/06/12 07:54:48;;;;;;;2.83;2.58;;;22.80;81.90;;;;;;4952095;28;20157;-70
2023/06/12 07:57:14;;;;;;;3.83;2.63;;;22.80;81.60;;;;;;4951987;28;20050;-71
2023/06/12 07:59:40;;;;;;;4.82;2.63;;;22.80;81.10;;;;;;4952355;28;20106;-70
2023/06/12 08:02:06;;;;;;;2.78;2.45;;;22.90;80.80;;;;;;4952172;28;20049;-71
2023/06/12 08:04:33;;;;;;;4.97;2.40;;;22.90;79.70;;;;;;4952104;28;20060;-70
2023/06/12 08:07:00;;;;;;;5.03;2.72;;;22.90;78.30;;;;;;4952224;28;20122;-71
2023/06/12 08:09:26;;;;;;;5.38;2.65;;;23.00;78.20;;;;;;4952022;28;20085;-70
2023/06/12 08:11:52;;;;;;;5.57;2.42;;;23.00;77.10;;;;;;4952165;28;20036;-70
2023/06/12 08:14:18;;;;;;;6.68;2.50;;;23.10;77.70;;;;;;4951953;28;20023;-70
2023/06/12 08:16:45;;;;;;;4.97;3.03;;;23.10;78.20;;;;;;5034596;28;20521;-70
2023/06/12 08:19:12;;;;;;;3.25;2.55;;;23.10;77.30;;;;;;4951931;28;20023;-70
2023/06/12 08:21:39;;;;;;;3.40;2.20;;;23.20;78.20;;;;;;4951829;28;20086;-70
2023/06/12 08:24:07;;;;;;;4.22;2.40;;;23.20;77.20;;;;;;4951913;28;20027;-70
2023/06/12 08:26:33;;;;;;;5.03;2.50;;;23.20;75.70;;;;;;4951585;28;20059;-70
2023/06/12 08:29:00;;;;;;;6.93;2.88;;;23.30;75.10;;;;;;4951498;28;20028;-71
2023/06/12 08:31:25;;;;;;;5.00;2.50;;;23.40;74.40;;;;;;4951618;28;20061;-70
2023/06/12 08:33:51;;;;;;;7.03;2.47;;;23.40;74.60;;;;;;4951895;28;20024;-70
2023/06/12 08:36:17;;;;;;;4.20;2.30;;;23.50;72.90;;;;;;4951618;28;20055;-70
2023/06/12 08:38:42;;;;;;;4.63;2.28;;;23.50;72.70;;;;;;4951567;28;20035;-70
2023/06/12 08:41:08;;;;;;;6.72;2.88;;;23.60;71.20;;;;;;4951304;28;20023;-71
2023/06/12 08:43:35;;;;;;;5.15;2.30;;;23.70;70.30;;;;;;4951664;28;20027;-70
2023/06/12 08:46:04;;;;;;;8.23;2.72;;;23.70;70.90;;;;;;5017648;28;20035;-70
2023/06/12 08:48:30;;;;;;;7.85;2.70;;;23.70;72.00;;;;;;4951746;28;20055;-70
2023/06/12 08:50:56;;;;;;;7.35;3.40;;;23.80;71.50;;;;;;4951682;28;20039;-71
2023/06/12 08:53:22;;;;;;;6.20;2.80;;;23.80;70.90;;;;;;4950199;28;20026;-71
2023/06/12 08:55:50;;;;;;;12.32;3.15;;;23.90;70.80;;;;;;4951513;28;20030;-71
2023/06/12 08:58:15;;;;;;;3.83;2.58;;;23.90;70.00;;;;;;4951536;28;20024;-70
2023/06/12 09:00:41;;;;;;;4.63;3.03;;;24.00;69.70;;;;;;4951274;28;20449;-71
2023/06/12 09:03:07;;;;;;;7.72;2.42;;;24.00;70.10;;;;;;4950814;28;20479;-70
2023/06/12 09:05:38;;;;;;;3.22;2.50;;;24.00;68.80;;;;;;4953417;28;20446;-71
2023/06/12 09:08:04;;;;;;;3.17;2.53;;;24.10;70.00;;;;;;4954360;28;20050;-71
2023/06/12 09:10:34;;;;;;;5.10;2.88;;;24.20;70.10;;;;;;4954579;28;20030;-70
2023/06/12 09:13:04;;;;;;;2.53;2.33;;;24.20;68.70;;;;;;4954545;28;20077;-70
2023/06/12 09:15:30;;;;;;;3.67;2.50;;;24.20;68.50;;;;;;4954334;28;20379;-71
2023/06/12 09:17:56;;;;;;;6.97;2.65;;;24.20;68.40;;;;;;4954338;28;20032;-71
2023/06/12 09:20:27;;;;;;;4.43;2.47;;;24.30;67.70;;;;;;4954384;28;20066;-70
2023/06/12 09:22:58;;;;;;;5.65;2.47;;;24.30;66.80;;;;;;4954439;28;20034;-70
2023/06/12 09:25:32;;;;;;;3.97;2.35;;;24.30;65.50;;;;;;4954167;28;20046;-71
2023/06/12 09:27:58;;;;;;;6.00;2.70;;;24.30;66.30;;;;;;4954431;28;20042;-70
2023/06/12 09:30:24;;;;;;;11.82;2.78;;;24.40;66.90;;;;;;4954406;28;20031;-70
2023/06/12 09:32:51;;;;;;;8.73;2.38;;;24.40;67.30;;;;;;4954367;28;20027;-70
2023/06/12 09:35:17;;;;;;;3.28;2.58;;;24.50;67.30;;;;;;4953938;28;20051;-70
2023/06/12 09:37:43;;;;;;;2.75;2.40;;;24.50;66.40;;;;;;4954064;28;20165;-70
2023/06/12 09:40:14;;;;;;;7.40;2.88;;;24.60;67.20;;;;;;4954327;28;20494;-70
2023/06/12 09:42:41;;;;;;;3.50;2.10;;;24.60;67.00;;;;;;4954395;28;20023;-70
2023/06/12 09:45:14;;;;;;;3.10;2.40;;;24.70;66.50;;;;;;4954062;28;20089;-71
2023/06/12 09:47:47;;;;;;;5.13;2.65;;;24.70;66.40;;;;;;4954110;28;20367;-71
2023/06/12 09:50:15;;;;;;;3.85;2.50;;;24.80;65.70;;;;;;4953943;28;20044;-71
2023/06/12 09:52:43;;;;;;;4.05;2.50;;;24.90;66.90;;;;;;4953968;28;20090;-70
2023/06/12 09:55:17;;;;;;;3.00;2.53;;;24.90;68.00;;;;;;4953443;28;20040;-71
2023/06/12 09:57:48;;;;;;;5.03;2.20;;;25.00;66.30;;;;;;4953810;28;20031;-71
2023/06/12 10:00:16;;;;;;;3.38;2.40;;;25.10;65.50;;;;;;4953596;28;20445;-70
2023/06/12 10:03:04;;;;;;;9.13;2.80;;;25.10;65.20;;;;;;4953880;28;20149;-70
2023/06/12 10:05:44;;;;;;;4.28;2.30;;;25.00;64.90;;;;;;4953912;28;20067;-70
2023/06/12 10:08:10;;;;;;;4.57;2.55;;;25.00;64.60;;;;;;4952629;28;20059;-73
2023/06/12 10:10:36;;;;;;;5.03;2.80;;;25.00;63.60;;;;;;4950607;28;20055;-71
2023/06/12 10:13:03;;;;;;;6.38;2.53;;;25.00;63.70;;;;;;4950622;28;20368;-72
2023/06/12 10:15:30;;;;;;;5.80;2.70;;;24.90;63.80;;;;;;4951478;28;20015;-72
2023/06/12 10:17:58;;;;;;;2.92;2.40;;;24.90;64.70;;;;;;4952988;28;20028;-72
2023/06/12 10:20:25;;;;;;;4.65;2.30;;;24.90;64.40;;;;;;4952687;28;20498;-72
2023/06/12 10:22:53;;;;;;;3.50;2.70;;;24.90;64.50;;;;;;4952886;28;20031;-71
2023/06/12 10:25:20;;;;;;;6.47;2.30;;;25.00;64.80;;;;;;4952965;28;20368;-73
2023/06/12 10:27:47;;;;;;;3.95;2.20;;;25.10;65.70;;;;;;4952984;28;20084;-74
2023/06/12 10:30:16;;;;;;;5.78;2.80;;;25.10;65.70;;;;;;4953294;28;20088;-71
2023/06/12 10:32:45;;;;;;;7.65;2.50;;;25.20;65.70;;;;;;4953276;28;20081;-73
2023/06/12 10:35:10;;;;;;;6.00;2.72;;;25.30;65.20;;;;;;4952394;28;20051;-71
2023/06/12 10:37:42;;;;;;;4.82;2.90;;;25.40;64.60;;;;;;4953025;28;20034;-74
2023/06/12 10:40:18;;;;;;;17.85;9.95;;;25.50;63.90;;;;;;4952962;28;20031;-75
2023/06/12 10:42:53;;;;;;;7.95;4.38;;;25.50;64.60;;;;;;4953018;28;20034;-74
2023/06/12 10:45:25;;;;;;;5.18;3.00;;;25.60;62.20;;;;;;4952993;28;20118;-75
2023/06/12 10:48:03;;;;;;;3.35;2.80;;;25.60;62.30;;;;;;4952873;28;20023;-75
2023/06/12 10:50:30;;;;;;;3.08;2.50;;;25.70;62.40;;;;;;4953151;28;20517;-74
2023/06/12 10:52:59;;;;;;;4.80;2.40;;;25.70;63.10;;;;;;4953129;28;20023;-73
2023/06/12 10:55:28;;;;;;;7.07;2.25;;;25.80;61.70;;;;;;4952597;28;20111;-73
2023/06/12 10:57:55;;;;;;;2.30;2.10;;;25.80;60.90;;;;;;4952468;28;20032;-73
2023/06/12 11:00:27;;;;;;;4.35;2.55;;;25.80;61.00;;;;;;4952401;28;20070;-73
2023/06/12 11:03:02;;;;;;;6.93;2.42;;;25.80;61.70;;;;;;4952324;28;20114;-73
2023/06/12 11:05:29;;;;;;;5.03;2.30;;;25.80;60.20;;;;;;4952472;28;20095;-73
2023/06/12 11:08:02;;;;;;;5.82;3.20;;;25.80;61.30;;;;;;4952130;29;20033;-73
2023/06/12 11:10:30;;;;;;;7.07;2.42;;;25.80;61.40;;;;;;4952757;28;20038;-73
2023/06/12 11:12:56;;;;;;;4.25;2.10;;;25.90;61.20;;;;;;4952527;28;20490;-74
2023/06/12 11:15:23;;;;;;;5.05;2.20;;;25.90;60.60;;;;;;4952838;28;20224;-73
2023/06/12 11:17:49;;;;;;;3.40;2.15;;;25.90;59.80;;;;;;4952195;28;20020;-71
2023/06/12 11:20:18;;;;;;;4.28;2.38;;;26.00;59.70;;;;;;5018922;28;20108;-72
2023/06/12 11:22:45;;;;;;;3.90;2.20;;;26.00;59.40;;;;;;5052815;28;20025;-73
2023/06/12 11:25:11;;;;;;;4.78;2.50;;;26.00;59.10;;;;;;5052340;28;20028;-69
2023/06/12 11:27:37;;;;;;;4.05;2.22;;;26.00;59.20;;;;;;5051606;28;20029;-75
2023/06/12 11:30:13;;;;;;;7.07;2.00;;;26.00;59.00;;;;;;5053060;28;20112;-69
2023/06/12 11:32:42;;;;;;;4.85;2.10;;;26.10;59.90;;;;;;5052762;28;20096;-73
2023/06/12 11:35:11;;;;;;;2.88;2.08;;;26.10;59.80;;;;;;5053094;28;20045;-73
2023/06/12 11:37:38;;;;;;;2.95;2.15;;;26.20;58.80;;;;;;5053043;28;20037;-71
2023/06/12 11:40:12;;;;;;;2.47;2.10;;;26.20;60.30;;;;;;5052836;28;20017;-70
2023/06/12 11:42:39;;;;;;;3.50;1.98;;;26.20;60.90;;;;;;5052069;28;20070;-71
2023/06/12 11:45:13;;;;;;;6.25;1.92;;;26.20;58.80;;;;;;5052606;28;20480;-69
2023/06/12 11:47:42;;;;;;;3.08;2.30;;;26.30;58.60;;;;;;5053331;28;20053;-70
2023/06/12 11:50:12;;;;;;;3.67;2.13;;;26.30;58.30;;;;;;5052415;28;20075;-69
2023/06/12 11:52:40;;;;;;;5.63;2.15;;;26.30;57.60;;;;;;5051993;28;20025;-70
2023/06/12 11:55:08;;;;;;;4.80;1.98;;;26.40;58.50;;;;;;5052517;28;20021;-70
2023/06/12 11:57:35;;;;;;;4.43;2.22;;;26.40;57.10;;;;;;5052804;28;20028;-70
2023/06/12 12:00:14;;;;;;;4.60;2.00;;;26.40;57.60;;;;;;5052672;28;20052;-70
2023/06/12 12:02:51;;;;;;;3.35;2.20;;;26.40;59.30;;;;;;5052806;28;20028;-69
2023/06/12 12:05:22;;;;;;;4.45;2.30;;;26.50;58.40;;;;;;5052568;28;20408;-70
2023/06/12 12:07:59;;;;;;;2.10;1.80;;;26.50;58.20;;;;;;5052773;28;20029;-70
2023/06/12 12:10:29;;;;;;;9.20;2.10;;;26.60;59.40;;;;;;5052752;28;20259;-70
2023/06/12 12:13:00;;;;;;;5.20;2.33;;;26.60;58.30;;;;;;5052677;28;20025;-69
2023/06/12 12:15:38;;;;;;;9.93;2.30;;;26.70;58.50;;;;;;5052458;28;20473;-70
2023/06/12 12:18:09;;;;;;;3.05;2.30;;;26.70;58.70;;;;;;5052801;28;20029;-70
2023/06/12 12:20:35;;;;;;;2.92;2.25;;;26.70;57.90;;;;;;5052741;28;20497;-70
2023/06/12 12:23:02;;;;;;;4.05;2.25;;;26.80;56.50;;;;;;5052491;28;20159;-69
2023/06/12 12:25:30;;;;;;;2.53;2.00;;;26.70;57.30;;;;;;5052383;28;20041;-70
2023/06/12 12:27:59;;;;;;;2.60;1.85;;;26.80;57.40;;;;;;5052078;28;20074;-70
2023/06/12 12:30:26;;;;;;;5.10;2.30;;;26.80;57.20;;;;;;5052446;28;20099;-70
2023/06/12 12:32:54;;;;;;;3.83;1.80;;;26.90;57.70;;;;;;5052715;28;20021;-69
2023/06/12 12:35:21;;;;;;;4.05;2.17;;;26.80;56.30;;;;;;5052325;28;20045;-70
2023/06/12 12:37:47;;;;;;;3.60;2.00;;;26.90;57.00;;;;;;5052589;28;20064;-69
2023/06/12 12:40:14;;;;;;;2.67;2.20;;;26.90;56.70;;;;;;5056116;28;20025;-70
2023/06/12 12:42:42;;;;;;;4.47;2.30;;;26.90;56.90;;;;;;5056178;28;20028;-70
2023/06/12 12:45:10;;;;;;;5.18;1.95;;;26.90;57.10;;;;;;5056227;28;20032;-70
2023/06/12 12:47:36;;;;;;;2.70;1.98;;;26.90;57.60;;;;;;5056287;28;20036;-70